Time;durP1;ratioP1;P1;durP2;ratioP2;P2;SDS_P1;SDS_P2;PMS_P1;PMS_P2;Temp;Humidity;BMP_temperature;BMP_pressure;BME280_temperature;BME280_humidity;BME280_pressure;Samples;Min_cycle;Max_cycle;Signal;HPM_P1;HPM_P2
2023/11/14 00:02:11;;;;;;;11.18;5.13;;;16.20;77.40;;;;;;10408579;28;20094;-58
2023/11/14 00:07:11;;;;;;;8.02;4.45;;;16.20;77.30;;;;;;10408290;28;20033;-57
2023/11/14 00:12:13;;;;;;;9.52;4.63;;;16.20;77.30;;;;;;10408204;28;20025;-57
2023/11/14 00:17:14;;;;;;;13.23;5.40;;;16.20;77.30;;;;;;10407746;28;20116;-58
2023/11/14 00:22:15;;;;;;;8.27;4.47;;;16.20;77.40;;;;;;10408337;28;20424;-58
2023/11/14 00:27:17;;;;;;;11.68;4.40;;;16.20;77.30;;;;;;10407927;28;20029;-57
2023/11/14 00:32:18;;;;;;;8.65;4.57;;;16.20;77.30;;;;;;10408694;28;20513;-58
2023/11/14 00:37:19;;;;;;;11.52;4.22;;;16.20;77.30;;;;;;10407477;28;20026;-58
2023/11/14 00:42:19;;;;;;;11.20;5.78;;;16.20;77.30;;;;;;10408937;28;20041;-58
2023/11/14 00:47:20;;;;;;;13.07;4.82;;;16.20;77.30;;;;;;10414917;28;20103;-58
2023/11/14 00:52:21;;;;;;;13.63;5.28;;;16.20;77.20;;;;;;10413395;28;20147;-57
2023/11/14 00:57:21;;;;;;;13.35;5.60;;;16.10;77.20;;;;;;10414338;28;20024;-58
2023/11/14 01:02:22;;;;;;;7.65;3.47;;;16.10;77.00;;;;;;10414465;28;20037;-58
2023/11/14 01:07:23;;;;;;;8.02;4.20;;;16.10;77.10;;;;;;10413911;28;20144;-58
2023/11/14 01:12:25;;;;;;;10.85;4.93;;;16.10;77.20;;;;;;10413992;28;20057;-58
2023/11/14 01:17:26;;;;;;;15.40;4.32;;;16.10;77.10;;;;;;10413744;28;20045;-58
2023/11/14 01:22:27;;;;;;;12.65;5.07;;;16.10;77.10;;;;;;10414033;28;20365;-57
2023/11/14 01:27:27;;;;;;;12.25;4.72;;;16.10;77.10;;;;;;10413333;28;20072;-58
2023/11/14 01:32:28;;;;;;;9.52;4.50;;;16.10;77.10;;;;;;10412992;28;20042;-59
2023/11/14 01:37:29;;;;;;;8.30;5.38;;;16.10;77.10;;;;;;10412770;28;20022;-58
2023/11/14 01:42:29;;;;;;;10.55;4.38;;;16.10;77.10;;;;;;10412786;28;20037;-57
2023/11/14 01:47:30;;;;;;;10.40;4.78;;;16.10;77.10;;;;;;10411339;28;20030;-57
2023/11/14 01:52:31;;;;;;;8.73;4.00;;;16.10;77.10;;;;;;10412493;28;20087;-57
2023/11/14 01:57:33;;;;;;;12.55;5.63;;;16.10;77.10;;;;;;10412167;28;20028;-56
2023/11/14 02:02:34;;;;;;;8.80;3.53;;;16.10;77.10;;;;;;10411029;28;20029;-57
2023/11/14 02:07:37;;;;;;;10.43;4.88;;;16.00;77.00;;;;;;10410176;28;20033;-57
2023/11/14 02:12:38;;;;;;;8.77;3.80;;;16.00;77.00;;;;;;10411773;28;20432;-57
2023/11/14 02:17:43;;;;;;;8.55;4.65;;;16.00;77.00;;;;;;10411035;28;20036;-57
2023/11/14 02:22:44;;;;;;;11.63;4.18;;;16.00;77.00;;;;;;10410075;28;20564;-56
2023/11/14 02:27:44;;;;;;;14.52;4.97;;;16.00;77.00;;;;;;10410818;28;20037;-57
2023/11/14 02:32:45;;;;;;;10.82;4.03;;;16.00;76.90;;;;;;10423917;28;20049;-58
2023/11/14 02:37:46;;;;;;;7.85;3.60;;;16.00;76.90;;;;;;10410525;28;20108;-58
2023/11/14 02:42:46;;;;;;;14.20;3.72;;;16.00;76.90;;;;;;10409448;28;20033;-57
2023/11/14 02:47:48;;;;;;;14.02;4.88;;;16.00;77.00;;;;;;10409996;28;20032;-58
2023/11/14 02:52:49;;;;;;;10.43;4.72;;;16.00;76.90;;;;;;10410411;28;20080;-58
2023/11/14 02:57:50;;;;;;;7.70;3.35;;;16.00;76.90;;;;;;10409788;28;20439;-57
2023/11/14 03:02:51;;;;;;;13.43;4.03;;;16.00;76.90;;;;;;10410081;28;20030;-57
2023/11/14 03:07:51;;;;;;;7.45;4.15;;;16.00;76.80;;;;;;10408839;28;20079;-57
2023/11/14 03:12:53;;;;;;;12.10;3.85;;;16.00;77.40;;;;;;10409445;28;20033;-57
2023/11/14 03:17:56;;;;;;;11.27;4.20;;;16.00;76.80;;;;;;10409204;28;20034;-57
2023/11/14 03:22:56;;;;;;;8.50;4.03;;;16.00;76.70;;;;;;10409353;28;20485;-57
2023/11/14 03:28:01;;;;;;;9.20;4.07;;;16.00;76.70;;;;;;10407655;28;20033;-57
2023/11/14 03:33:02;;;;;;;11.07;3.72;;;16.00;76.80;;;;;;10409967;28;20076;-56
2023/11/14 03:38:02;;;;;;;14.60;4.38;;;15.90;76.80;;;;;;10408424;28;20040;-57
2023/11/14 03:43:03;;;;;;;12.07;4.18;;;15.90;77.40;;;;;;10408986;28;20033;-57
2023/11/14 03:48:04;;;;;;;10.65;3.95;;;15.90;76.80;;;;;;10408764;28;20029;-56
2023/11/14 03:53:05;;;;;;;8.70;4.40;;;15.90;76.80;;;;;;10408721;28;20087;-58
2023/11/14 03:58:07;;;;;;;11.10;4.53;;;15.90;76.70;;;;;;10408400;28;20079;-57
2023/11/14 04:03:07;;;;;;;10.82;3.78;;;15.90;76.70;;;;;;10408698;28;20362;-55
2023/11/14 04:08:08;;;;;;;10.13;5.22;;;15.90;76.70;;;;;;10409634;28;20037;-57
2023/11/14 04:13:09;;;;;;;12.05;3.70;;;15.90;76.70;;;;;;10424147;28;20068;-57
2023/11/14 04:18:09;;;;;;;16.30;4.43;;;15.90;76.80;;;;;;10420078;28;20492;-56
2023/11/14 04:23:10;;;;;;;12.05;3.55;;;16.00;77.60;;;;;;10446576;28;20041;-57
2023/11/14 04:28:11;;;;;;;9.88;3.63;;;16.10;77.40;;;;;;10413886;28;20028;-57
2023/11/14 04:33:12;;;;;;;9.15;3.53;;;16.10;77.10;;;;;;10415419;28;20045;-58
2023/11/14 04:38:12;;;;;;;9.10;4.07;;;16.10;77.10;;;;;;10432316;28;20094;-57
2023/11/14 04:43:14;;;;;;;9.15;3.20;;;16.10;77.10;;;;;;10419408;28;20047;-57
2023/11/14 04:48:15;;;;;;;10.55;4.57;;;16.00;77.10;;;;;;10414935;28;20484;-57
2023/11/14 04:53:16;;;;;;;10.70;4.65;;;16.00;77.20;;;;;;10414246;28;20034;-57
2023/11/14 04:58:17;;;;;;;11.20;4.18;;;16.00;77.20;;;;;;10414460;28;20048;-57
2023/11/14 05:03:18;;;;;;;10.40;4.13;;;15.90;77.10;;;;;;10414628;28;20037;-57
2023/11/14 05:08:19;;;;;;;10.30;4.25;;;16.00;77.10;;;;;;10414043;28;20032;-57
2023/11/14 05:13:19;;;;;;;10.07;3.03;;;15.90;77.10;;;;;;10414164;28;20033;-58
2023/11/14 05:18:21;;;;;;;12.15;4.53;;;15.90;77.10;;;;;;10413605;28;20477;-56
2023/11/14 05:23:22;;;;;;;9.10;4.38;;;15.90;77.10;;;;;;10413817;28;20029;-57
2023/11/14 05:28:23;;;;;;;8.80;3.67;;;15.90;77.00;;;;;;10412883;28;20029;-57
2023/11/14 05:33:23;;;;;;;10.50;4.53;;;15.90;77.00;;;;;;10425084;28;20041;-57
2023/11/14 05:38:24;;;;;;;7.32;2.97;;;15.90;77.00;;;;;;10412680;28;20104;-58
2023/11/14 05:43:28;;;;;;;12.27;4.07;;;15.90;77.20;;;;;;10412994;28;20048;-58
2023/11/14 05:48:28;;;;;;;10.25;3.33;;;16.00;77.00;;;;;;10412538;28;20048;-57
2023/11/14 05:53:30;;;;;;;13.02;3.40;;;16.20;76.30;;;;;;10412667;28;20036;-58
2023/11/14 05:58:31;;;;;;;9.30;3.25;;;16.40;75.80;;;;;;10412212;28;20029;-57
2023/11/14 06:03:31;;;;;;;10.02;3.70;;;16.60;75.20;;;;;;10412017;28;20044;-57
2023/11/14 06:08:32;;;;;;;11.57;3.50;;;16.70;74.90;;;;;;10411978;28;20037;-58
2023/11/14 06:13:33;;;;;;;12.40;3.13;;;17.00;74.80;;;;;;10411807;28;20025;-57
2023/11/14 06:18:34;;;;;;;13.50;3.15;;;17.10;74.80;;;;;;10411196;28;20025;-57
2023/11/14 06:23:34;;;;;;;14.52;3.78;;;17.20;74.60;;;;;;10411683;28;20459;-57
2023/11/14 06:28:35;;;;;;;13.75;3.60;;;17.30;74.50;;;;;;10411821;28;20047;-58
2023/11/14 06:33:36;;;;;;;11.15;3.17;;;17.40;74.70;;;;;;10410183;28;20049;-56
2023/11/14 06:38:37;;;;;;;13.27;4.45;;;17.70;73.90;;;;;;10409778;28;20430;-58
2023/11/14 06:43:39;;;;;;;10.57;3.20;;;17.80;73.00;;;;;;10409687;28;20056;-58
2023/11/14 06:48:40;;;;;;;15.07;4.10;;;17.90;73.00;;;;;;10410056;28;20037;-57
2023/11/14 06:53:40;;;;;;;15.65;3.80;;;18.10;72.70;;;;;;10410168;28;20087;-57
2023/11/14 06:58:41;;;;;;;15.20;3.47;;;18.30;72.00;;;;;;10405799;28;20014;-57
2023/11/14 07:03:43;;;;;;;12.32;3.50;;;18.30;71.80;;;;;;10409053;28;20644;-58
2023/11/14 07:08:44;;;;;;;12.48;3.35;;;18.30;71.70;;;;;;10408805;28;20034;-59
2023/11/14 07:13:45;;;;;;;13.60;3.65;;;18.10;72.10;;;;;;10409321;28;20546;-59
2023/11/14 07:18:46;;;;;;;16.17;4.32;;;17.90;72.50;;;;;;10408884;28;20404;-57
2023/11/14 07:23:47;;;;;;;18.73;3.40;;;17.80;72.80;;;;;;10409439;28;20045;-58
2023/11/14 07:28:48;;;;;;;14.32;4.00;;;17.80;73.00;;;;;;10409831;28;20577;-58
2023/11/14 07:33:49;;;;;;;13.70;3.53;;;17.70;72.90;;;;;;10408572;28;20044;-58
2023/11/14 07:38:50;;;;;;;13.20;4.22;;;17.70;73.10;;;;;;10408963;28;20036;-58
2023/11/14 07:43:51;;;;;;;14.27;3.78;;;17.70;73.20;;;;;;10409292;28;20091;-58
2023/11/14 07:48:52;;;;;;;14.02;3.63;;;17.60;73.20;;;;;;10411018;28;20486;-57
2023/11/14 07:53:53;;;;;;;10.32;3.08;;;17.60;73.70;;;;;;10412761;28;20078;-58
2023/11/14 07:58:54;;;;;;;14.07;4.22;;;17.70;73.80;;;;;;10416290;28;20029;-55
2023/11/14 08:03:55;;;;;;;14.73;3.92;;;17.70;73.80;;;;;;10416193;28;20041;-57
2023/11/14 08:08:56;;;;;;;11.70;4.07;;;17.60;74.10;;;;;;10415844;28;20033;-56
2023/11/14 08:13:57;;;;;;;8.05;2.83;;;17.60;74.20;;;;;;10415576;28;20035;-57
2023/11/14 08:18:59;;;;;;;11.02;3.50;;;17.60;74.30;;;;;;10416106;28;20033;-56
2023/11/14 08:23:59;;;;;;;10.25;2.75;;;17.50;74.40;;;;;;10415346;28;20149;-57
2023/11/14 08:29:00;;;;;;;11.23;3.63;;;17.40;74.70;;;;;;10420281;28;20025;-57
2023/11/14 08:34:01;;;;;;;14.43;3.42;;;17.50;74.50;;;;;;10423265;28;20032;-58
2023/11/14 08:39:02;;;;;;;9.10;3.78;;;17.50;74.30;;;;;;10414275;28;20461;-58
2023/11/14 08:44:03;;;;;;;10.45;3.53;;;17.50;74.30;;;;;;10414743;28;20030;-57
2023/11/14 08:49:07;;;;;;;11.05;2.80;;;17.50;74.70;;;;;;10414769;28;20396;-58
2023/11/14 08:54:07;;;;;;;11.20;3.72;;;17.40;74.90;;;;;;10414234;28;20041;-58
2023/11/14 08:59:08;;;;;;;12.38;3.50;;;17.30;75.20;;;;;;10414927;28;20040;-58
2023/11/14 09:04:10;;;;;;;10.25;2.60;;;17.20;75.40;;;;;;10413154;28;20025;-58
2023/11/14 09:09:12;;;;;;;11.93;4.97;;;17.20;75.40;;;;;;10414097;28;20037;-57
2023/11/14 09:14:14;;;;;;;11.40;3.28;;;17.20;75.40;;;;;;10413693;28;20037;-58
2023/11/14 09:19:15;;;;;;;5.35;2.20;;;17.20;75.30;;;;;;10414001;28;20037;-58
2023/11/14 09:24:15;;;;;;;7.25;2.72;;;17.20;75.00;;;;;;10408154;28;20036;-55
2023/11/14 09:29:16;;;;;;;5.72;2.88;;;17.20;74.80;;;;;;10419747;28;20083;-55
2023/11/14 09:34:17;;;;;;;7.00;2.70;;;17.20;74.60;;;;;;10418927;28;20538;-55
2023/11/14 09:39:19;;;;;;;7.65;2.75;;;17.20;74.40;;;;;;10412882;28;20032;-56
2023/11/14 09:44:19;;;;;;;11.02;4.07;;;17.20;75.00;;;;;;10412512;28;20124;-56
2023/11/14 09:49:20;;;;;;;8.40;3.28;;;17.30;75.30;;;;;;10412830;28;20044;-56
2023/11/14 09:54:21;;;;;;;7.47;2.95;;;17.20;75.20;;;;;;10411496;28;20099;-56
2023/11/14 09:59:22;;;;;;;9.30;2.80;;;17.20;75.20;;;;;;10409771;28;20033;-57
2023/11/14 10:04:23;;;;;;;10.93;3.00;;;17.20;75.20;;;;;;10409513;28;20068;-56
2023/11/14 10:09:25;;;;;;;9.57;3.50;;;17.10;75.40;;;;;;10410943;28;20392;-55
2023/11/14 10:14:26;;;;;;;9.10;2.53;;;17.10;75.50;;;;;;10410474;28;20029;-56
2023/11/14 10:19:26;;;;;;;6.25;2.05;;;17.10;75.30;;;;;;10410624;28;20014;-55
2023/11/14 10:24:27;;;;;;;8.45;2.78;;;17.10;75.20;;;;;;10410499;28;20030;-57
2023/11/14 10:29:28;;;;;;;8.52;3.08;;;17.10;75.40;;;;;;10409540;28;20053;-56
2023/11/14 10:34:31;;;;;;;10.55;3.05;;;17.00;75.20;;;;;;10410207;28;20036;-57
2023/11/14 10:39:31;;;;;;;11.40;3.00;;;17.00;75.20;;;;;;10410450;28;20477;-57
2023/11/14 10:44:32;;;;;;;8.15;2.58;;;16.90;75.40;;;;;;10409987;28;20064;-56
2023/11/14 10:49:45;;;;;;;8.23;2.55;;;16.90;75.30;;;;;;10410263;28;20037;-57
2023/11/14 10:54:48;;;;;;;7.85;3.40;;;16.90;75.20;;;;;;10409017;28;20385;-56
2023/11/14 10:59:50;;;;;;;8.30;2.65;;;16.90;75.00;;;;;;10410023;28;20103;-56
2023/11/14 11:04:52;;;;;;;8.70;3.17;;;17.00;74.80;;;;;;10407178;28;20025;-56
2023/11/14 11:09:52;;;;;;;11.25;3.10;;;17.00;74.90;;;;;;10408866;28;20087;-56
2023/11/14 11:14:54;;;;;;;7.90;2.70;;;17.00;74.70;;;;;;10407065;28;20110;-57
2023/11/14 11:19:55;;;;;;;6.30;2.65;;;17.00;74.70;;;;;;10408850;28;20033;-57
2023/11/14 11:25:23;;;;;;;8.63;2.95;;;17.00;74.80;;;;;;10407064;28;20030;-56
2023/11/14 11:30:26;;;;;;;8.07;2.65;;;16.90;75.00;;;;;;10407518;28;20060;-56
2023/11/14 11:35:28;;;;;;;7.15;2.80;;;17.00;74.60;;;;;;10406610;28;20044;-57
2023/11/14 11:40:31;;;;;;;6.93;2.83;;;17.20;74.20;;;;;;10404956;28;20088;-57
2023/11/14 11:45:38;;;;;;;6.07;2.72;;;17.20;74.70;;;;;;10407248;28;20037;-57
2023/11/14 11:50:41;;;;;;;8.05;3.25;;;17.20;74.10;;;;;;10407557;28;20533;-57
2023/11/14 11:55:42;;;;;;;6.88;2.42;;;17.10;74.20;;;;;;10405796;28;20037;-57
2023/11/14 12:00:43;;;;;;;10.55;4.10;;;17.00;74.40;;;;;;10407602;28;20030;-57
2023/11/14 12:05:46;;;;;;;5.00;2.78;;;17.00;74.50;;;;;;10406224;28;20036;-57
2023/11/14 12:10:46;;;;;;;8.23;2.92;;;17.10;74.40;;;;;;10405538;28;20098;-57
2023/11/14 12:15:47;;;;;;;7.07;2.65;;;17.10;74.20;;;;;;10406358;28;20056;-57
2023/11/14 12:20:50;;;;;;;8.85;2.28;;;17.10;74.20;;;;;;10405832;28;20021;-57
2023/11/14 12:25:50;;;;;;;10.95;3.00;;;17.10;74.20;;;;;;10406448;28;20028;-57
2023/11/14 12:31:01;;;;;;;8.38;3.13;;;17.00;74.30;;;;;;10419680;28;20053;-57
2023/11/14 12:36:02;;;;;;;8.48;3.15;;;17.00;74.40;;;;;;10405936;28;20065;-57
2023/11/14 12:41:28;;;;;;;10.23;2.20;;;17.10;74.20;;;;;;10411066;28;20128;-57
2023/11/14 12:46:32;;;;;;;6.25;2.20;;;17.10;74.20;;;;;;10412001;28;20087;-56
2023/11/14 12:51:33;;;;;;;6.43;2.72;;;17.10;74.80;;;;;;10411341;28;20053;-57
2023/11/14 12:56:35;;;;;;;6.53;2.30;;;17.10;74.10;;;;;;10418027;28;20038;-57
2023/11/14 13:01:38;;;;;;;6.72;2.40;;;17.00;74.40;;;;;;10412393;28;20056;-58
2023/11/14 13:06:47;;;;;;;15.00;3.50;;;17.00;74.30;;;;;;10412888;28;20250;-57
2023/11/14 13:11:47;;;;;;;5.10;2.17;;;17.00;74.40;;;;;;10412029;28;20060;-55
2023/11/14 13:16:48;;;;;;;7.43;3.58;;;17.00;74.30;;;;;;10412027;28;20021;-57
2023/11/14 13:21:49;;;;;;;6.68;1.98;;;17.00;74.80;;;;;;10412774;28;20032;-56
2023/11/14 13:26:49;;;;;;;8.88;2.63;;;17.10;74.00;;;;;;10410537;28;20034;-56
2023/11/14 13:31:50;;;;;;;7.70;3.20;;;17.20;74.00;;;;;;10411585;28;20052;-57
2023/11/14 13:36:51;;;;;;;7.95;2.28;;;17.40;73.90;;;;;;10411753;28;20116;-57
2023/11/14 13:41:52;;;;;;;7.03;2.15;;;17.50;73.70;;;;;;10412096;28;20040;-57
2023/11/14 13:46:55;;;;;;;8.15;2.60;;;17.50;73.70;;;;;;10410043;28;20025;-56
2023/11/14 13:51:55;;;;;;;8.70;2.38;;;17.40;74.00;;;;;;10411234;28;20033;-56
2023/11/14 13:56:57;;;;;;;7.53;3.38;;;17.40;74.20;;;;;;10409811;28;20026;-55
2023/11/14 14:01:58;;;;;;;8.75;2.83;;;17.30;74.40;;;;;;10410690;28;20034;-56
2023/11/14 14:06:58;;;;;;;3.95;2.28;;;17.20;75.30;;;;;;10408647;28;20488;-57
2023/11/14 14:11:59;;;;;;;8.88;3.28;;;17.20;75.20;;;;;;10428946;28;20029;-57
2023/11/14 14:17:00;;;;;;;9.32;3.38;;;17.10;75.10;;;;;;10408274;28;20036;-55
2023/11/14 14:22:02;;;;;;;12.23;4.25;;;17.10;74.90;;;;;;10410426;28;20084;-55
2023/11/14 14:27:04;;;;;;;8.65;3.80;;;17.00;74.70;;;;;;10408310;28;20033;-57
2023/11/14 14:32:05;;;;;;;11.38;4.47;;;17.10;74.10;;;;;;10424071;28;20050;-57
2023/11/14 14:37:06;;;;;;;8.90;2.88;;;17.20;73.40;;;;;;10425427;28;20503;-56
2023/11/14 14:42:07;;;;;;;7.68;2.90;;;17.30;72.60;;;;;;10425124;28;20133;-57
2023/11/14 14:47:09;;;;;;;9.00;2.95;;;17.50;72.30;;;;;;10416193;28;20540;-56
2023/11/14 14:52:11;;;;;;;9.77;3.03;;;17.40;72.20;;;;;;10424854;28;20551;-58
2023/11/14 14:57:12;;;;;;;9.00;2.97;;;17.40;72.60;;;;;;10421904;28;20078;-57
2023/11/14 15:02:13;;;;;;;9.43;2.55;;;17.60;72.30;;;;;;10423622;28;20086;-57
2023/11/14 15:07:14;;;;;;;11.95;4.95;;;17.70;72.20;;;;;;10406376;28;20028;-56
2023/11/14 15:12:15;;;;;;;8.38;2.75;;;17.70;72.20;;;;;;10408254;28;20030;-56
2023/11/14 15:17:16;;;;;;;8.40;2.85;;;17.60;72.40;;;;;;10406479;28;20097;-56
2023/11/14 15:22:16;;;;;;;9.07;3.10;;;17.40;72.90;;;;;;10406047;28;20041;-56
2023/11/14 15:27:17;;;;;;;12.98;4.30;;;17.40;73.10;;;;;;10407517;28;20029;-56
2023/11/14 15:32:20;;;;;;;12.52;2.63;;;17.30;73.30;;;;;;10420132;28;20091;-56
2023/11/14 15:37:22;;;;;;;10.55;3.40;;;17.40;73.80;;;;;;10407047;28;20041;-59
2023/11/14 15:42:23;;;;;;;14.02;3.40;;;17.30;74.10;;;;;;10407065;28;20025;-56
2023/11/14 15:47:24;;;;;;;25.00;4.57;;;17.20;74.10;;;;;;10406342;28;20041;-58
2023/11/14 15:52:24;;;;;;;46.78;6.65;;;17.20;74.60;;;;;;10406060;28;20624;-59
2023/11/14 15:57:25;;;;;;;22.63;5.70;;;17.30;74.80;;;;;;10400588;28;20060;-56
2023/11/14 16:02:26;;;;;;;22.33;4.50;;;17.10;74.80;;;;;;10407655;28;20112;-57
2023/11/14 16:07:27;;;;;;;22.55;3.70;;;17.10;74.60;;;;;;10438707;28;20072;-57
2023/11/14 16:12:28;;;;;;;23.25;6.82;;;17.00;74.70;;;;;;10409043;28;20878;-57
2023/11/14 16:17:28;;;;;;;12.30;4.43;;;17.00;74.80;;;;;;10415330;28;20025;-56
2023/11/14 16:22:29;;;;;;;13.18;4.35;;;17.00;75.00;;;;;;10419415;28;20476;-56
2023/11/14 16:27:30;;;;;;;16.55;4.50;;;16.90;75.00;;;;;;10428787;28;20094;-56
2023/11/14 16:32:30;;;;;;;11.00;3.20;;;16.90;75.20;;;;;;10415232;28;20045;-57
2023/11/14 16:37:32;;;;;;;12.02;3.45;;;16.80;75.20;;;;;;10420659;28;20480;-56
2023/11/14 16:42:33;;;;;;;13.88;4.10;;;16.80;75.30;;;;;;10416325;28;20100;-56
2023/11/14 16:47:34;;;;;;;11.10;3.63;;;16.80;75.20;;;;;;10413981;28;20033;-57
2023/11/14 16:52:34;;;;;;;16.98;5.35;;;16.90;75.00;;;;;;10414254;28;20024;-58
2023/11/14 16:57:37;;;;;;;13.90;2.92;;;16.90;75.00;;;;;;10413912;28;20034;-57
2023/11/14 17:02:38;;;;;;;14.93;4.18;;;16.90;75.00;;;;;;10414411;28;20057;-57
2023/11/14 17:07:39;;;;;;;12.45;4.93;;;16.90;74.70;;;;;;10413031;28;20039;-58
2023/11/14 17:12:40;;;;;;;9.75;3.50;;;17.00;74.50;;;;;;10402511;28;20488;-57
2023/11/14 17:17:41;;;;;;;11.23;3.03;;;17.00;74.40;;;;;;10412870;28;20034;-58
2023/11/14 17:22:42;;;;;;;12.07;4.13;;;16.90;74.70;;;;;;10413283;28;20034;-58
2023/11/14 17:27:42;;;;;;;18.70;5.40;;;17.00;74.90;;;;;;10412191;28;20025;-57
2023/11/14 17:32:43;;;;;;;13.45;3.92;;;17.30;76.30;;;;;;10423626;28;20033;-58
2023/11/14 17:37:44;;;;;;;11.40;3.88;;;17.40;75.80;;;;;;10412404;28;20029;-55
2023/11/14 17:42:44;;;;;;;12.82;4.63;;;17.40;76.20;;;;;;10412740;28;20034;-57
2023/11/14 17:47:45;;;;;;;13.45;4.22;;;17.40;75.90;;;;;;10412132;28;20128;-58
2023/11/14 17:52:46;;;;;;;16.27;4.10;;;17.40;75.70;;;;;;10406670;28;20021;-58
2023/11/14 17:57:48;;;;;;;13.15;4.47;;;17.30;75.60;;;;;;10411325;28;20075;-58
2023/11/14 18:02:49;;;;;;;16.27;3.60;;;17.20;75.70;;;;;;10410214;28;20038;-57
2023/11/14 18:07:49;;;;;;;11.60;4.25;;;17.10;75.70;;;;;;10410433;28;20465;-58
2023/11/14 18:12:50;;;;;;;41.85;6.55;;;17.10;76.20;;;;;;10412883;28;20688;-58
2023/11/14 18:17:51;;;;;;;11.45;2.97;;;17.00;76.20;;;;;;10409751;28;20040;-58
2023/11/14 18:22:54;;;;;;;11.77;4.30;;;17.10;76.30;;;;;;10403040;28;20025;-58
2023/11/14 18:27:54;;;;;;;13.90;4.10;;;17.00;76.30;;;;;;10403864;28;20037;-58
2023/11/14 18:32:55;;;;;;;15.55;3.55;;;17.00;76.90;;;;;;10406444;28;20049;-58
2023/11/14 18:37:56;;;;;;;15.02;4.05;;;17.00;76.60;;;;;;10405627;28;20025;-57
2023/11/14 18:42:56;;;;;;;15.50;2.83;;;16.90;77.50;;;;;;10408721;28;20499;-57
2023/11/14 18:47:57;;;;;;;13.30;2.83;;;16.90;76.80;;;;;;10424088;28;20448;-57
2023/11/14 18:52:58;;;;;;;14.25;3.35;;;17.00;76.80;;;;;;10418398;28;20385;-56
2023/11/14 18:57:59;;;;;;;13.45;4.65;;;17.00;77.00;;;;;;10412895;28;20262;-58
2023/11/14 19:02:59;;;;;;;14.00;3.85;;;16.90;77.10;;;;;;10388743;28;20053;-58
2023/11/14 19:08:00;;;;;;;14.38;3.40;;;16.90;77.40;;;;;;10423985;28;20036;-58
2023/11/14 19:13:02;;;;;;;8.40;3.33;;;16.90;77.50;;;;;;10409879;28;20079;-55
2023/11/14 19:18:03;;;;;;;11.35;3.72;;;16.90;77.30;;;;;;10406856;28;20032;-57
2023/11/14 19:23:05;;;;;;;9.10;3.35;;;17.00;77.20;;;;;;10404981;28;20042;-57
2023/11/14 19:28:06;;;;;;;9.10;2.88;;;17.00;77.20;;;;;;10404887;28;20484;-57
2023/11/14 19:33:07;;;;;;;12.98;3.50;;;17.00;77.20;;;;;;10412934;28;20045;-56
2023/11/14 19:38:08;;;;;;;9.75;2.85;;;17.00;77.20;;;;;;10439760;28;20021;-56
2023/11/14 19:43:09;;;;;;;12.30;2.83;;;16.90;77.10;;;;;;10410831;28;20032;-55
2023/11/14 19:48:10;;;;;;;8.48;2.30;;;17.00;77.30;;;;;;10430122;28;20035;-57
2023/11/14 19:53:12;;;;;;;9.73;2.90;;;17.00;77.00;;;;;;10427652;28;20025;-57
2023/11/14 19:58:13;;;;;;;6.93;2.90;;;17.10;76.90;;;;;;10412847;28;20025;-57
2023/11/14 20:03:14;;;;;;;6.60;2.33;;;17.10;76.70;;;;;;10413909;28;20036;-57
2023/11/14 20:08:14;;;;;;;6.18;2.30;;;17.10;76.90;;;;;;10414854;28;20501;-57
2023/11/14 20:13:16;;;;;;;5.75;2.08;;;17.00;77.00;;;;;;10412541;28;20063;-56
2023/11/14 20:18:16;;;;;;;5.32;2.30;;;17.00;77.10;;;;;;10410329;28;20041;-57
2023/11/14 20:23:18;;;;;;;5.45;3.15;;;17.00;77.10;;;;;;10411922;28;20033;-58
2023/11/14 20:28:19;;;;;;;3.88;1.90;;;17.00;77.20;;;;;;10379827;28;20081;-58
2023/11/14 20:33:20;;;;;;;6.80;2.70;;;16.90;76.90;;;;;;10408966;28;20052;-59
2023/11/14 20:38:20;;;;;;;5.82;1.85;;;16.90;76.90;;;;;;10420168;28;20496;-58
2023/11/14 20:43:22;;;;;;;4.93;1.80;;;16.80;76.90;;;;;;10451573;28;20041;-58
2023/11/14 20:48:23;;;;;;;6.78;2.17;;;16.80;77.10;;;;;;10415260;28;20025;-57
2023/11/14 20:53:25;;;;;;;3.63;1.63;;;16.70;77.10;;;;;;10414792;28;20108;-58
2023/11/14 20:58:25;;;;;;;4.10;2.00;;;16.70;77.10;;;;;;10414133;28;20041;-58
2023/11/14 21:03:26;;;;;;;5.20;2.35;;;16.70;77.20;;;;;;10414227;28;20147;-58
2023/11/14 21:08:28;;;;;;;4.78;2.85;;;16.70;77.20;;;;;;10414420;28;20048;-58
2023/11/14 21:13:29;;;;;;;4.65;1.65;;;16.70;77.20;;;;;;10413803;28;20033;-58
2023/11/14 21:18:30;;;;;;;6.38;2.20;;;16.60;77.20;;;;;;10414425;28;20037;-58
2023/11/14 21:23:31;;;;;;;4.72;2.35;;;16.60;77.20;;;;;;10413491;28;20025;-58
2023/11/14 21:28:31;;;;;;;4.93;1.50;;;16.60;77.20;;;;;;10414399;28;20037;-58
2023/11/14 21:33:36;;;;;;;4.93;1.80;;;16.60;77.30;;;;;;10425619;28;20381;-58
2023/11/14 21:38:37;;;;;;;4.70;1.90;;;16.60;77.20;;;;;;10413316;28;20029;-58
2023/11/14 21:43:39;;;;;;;2.72;1.40;;;16.50;77.20;;;;;;10412856;28;20532;-58
2023/11/14 21:48:39;;;;;;;4.38;1.52;;;16.50;77.20;;;;;;10413108;28;20033;-58
2023/11/14 21:53:40;;;;;;;3.00;1.52;;;16.50;77.20;;;;;;10412687;28;20033;-58
2023/11/14 21:58:41;;;;;;;3.67;1.40;;;16.50;77.20;;;;;;10412762;28;20026;-58
2023/11/14 22:03:42;;;;;;;5.07;1.58;;;16.50;77.20;;;;;;10412199;28;20040;-58
2023/11/14 22:08:42;;;;;;;3.45;1.48;;;16.40;77.20;;;;;;10412138;28;20033;-58
2023/11/14 22:13:43;;;;;;;4.47;1.90;;;16.40;77.10;;;;;;10411371;28;20095;-59
2023/11/14 22:18:44;;;;;;;3.83;1.70;;;16.40;77.10;;;;;;10411760;28;20079;-58
2023/11/14 22:23:46;;;;;;;7.63;1.98;;;16.40;77.20;;;;;;10411489;28;20037;-59
2023/11/14 22:28:46;;;;;;;6.40;1.75;;;16.40;77.10;;;;;;10413957;28;20033;-58
2023/11/14 22:33:48;;;;;;;3.97;1.38;;;16.40;77.10;;;;;;10421389;28;20029;-58
2023/11/14 22:38:49;;;;;;;6.10;1.70;;;16.30;77.10;;;;;;10409812;28;20033;-58
2023/11/14 22:43:52;;;;;;;5.25;2.28;;;16.30;77.10;;;;;;10410519;28;20400;-58
2023/11/14 22:48:53;;;;;;;3.38;1.27;;;16.30;77.10;;;;;;10410992;28;20029;-58
2023/11/14 22:53:54;;;;;;;2.58;1.35;;;16.30;77.00;;;;;;10409405;28;20030;-58
2023/11/14 22:58:54;;;;;;;3.15;1.42;;;16.30;77.00;;;;;;10410428;28;20025;-58
2023/11/14 23:03:57;;;;;;;3.88;1.98;;;16.30;77.00;;;;;;10410017;28;20075;-59
2023/11/14 23:08:57;;;;;;;3.28;2.20;;;16.30;77.00;;;;;;10409715;28;20053;-58
2023/11/14 23:13:58;;;;;;;4.13;1.25;;;16.30;77.00;;;;;;10409346;28;20029;-59
2023/11/14 23:18:59;;;;;;;2.03;1.10;;;16.30;76.90;;;;;;10409775;28;20112;-59
2023/11/14 23:24:00;;;;;;;3.78;1.35;;;16.20;76.80;;;;;;10408741;28;20516;-59
2023/11/14 23:29:01;;;;;;;4.03;1.40;;;16.20;76.80;;;;;;10409912;28;20047;-58
2023/11/14 23:34:01;;;;;;;4.03;1.60;;;16.20;76.80;;;;;;10408683;28;20443;-59
2023/11/14 23:39:03;;;;;;;1.95;1.52;;;16.20;76.80;;;;;;10409382;28;20041;-59
2023/11/14 23:44:04;;;;;;;3.13;1.23;;;16.20;76.70;;;;;;10407242;28;20049;-59
2023/11/14 23:49:07;;;;;;;3.30;1.33;;;16.20;76.70;;;;;;10408924;28;20037;-59
2023/11/14 23:54:08;;;;;;;4.60;1.77;;;16.20;76.70;;;;;;10408628;28;20056;-59
2023/11/14 23:59:09;;;;;;;2.42;1.17;;;16.20;76.70;;;;;;10408940;28;20063;-59
